Time;durP1;ratioP1;P1;durP2;ratioP2;P2;SDS_P1;SDS_P2;PMS_P1;PMS_P2;Temp;Humidity;BMP_temperature;BMP_pressure;BME280_temperature;BME280_humidity;BME280_pressure;Samples;Min_cycle;Max_cycle;Signal;HPM_P1;HPM_P2
2023/02/15 00:01:00;;;;;;;;;;;;;;;;;;6189973;23;19908;-78
2023/02/15 00:03:25;;;;;;;;;;;;;;;;;;6190820;23;19962;-77
2023/02/15 00:05:50;;;;;;;;;;;;;;;;;;6192675;23;19916;-77
2023/02/15 00:08:16;;;;;;;;;;;;;;;;;;6165789;23;19984;-77
2023/02/15 00:10:41;;;;;;;;;;;;;;;;;;6166664;23;20300;-78
2023/02/15 00:13:06;;;;;;;;;;;;;;;;;;6190821;23;19995;-77
2023/02/15 00:15:32;;;;;;;;;;;;;;;;;;6190215;23;19913;-77
2023/02/15 00:17:57;;;;;;;;;;;;;;;;;;6189557;23;19908;-78
2023/02/15 00:20:22;;;;;;;;;;;;;;;;;;6188178;23;19995;-78
2023/02/15 00:22:48;;;;;;;;;;;;;;;;;;6191427;23;19935;-77
2023/02/15 00:25:13;;;;;;;;;;;;;;;;;;6194539;23;19908;-78
2023/02/15 00:27:38;;;;;;;;;;;;;;;;;;6193807;23;19908;-78
2023/02/15 00:30:05;;;;;;;;;;;;;;;;;;6194092;23;20309;-78
2023/02/15 00:32:31;;;;;;;;;;;;;;;;;;6195066;23;19956;-78
2023/02/15 00:34:56;;;;;;;;;;;;;;;;;;6193740;23;19919;-78
2023/02/15 00:37:23;;;;;;;;;;;;;;;;;;6199108;23;20494;-78
2023/02/15 00:39:48;;;;;;;;;;;;;;;;;;6197288;23;19913;-77
2023/02/15 00:42:13;;;;;;;;;;;;;;;;;;6195516;23;20353;-78
2023/02/15 00:44:39;;;;;;;;;;;;;;;;;;6195971;23;19928;-77
2023/02/15 00:47:04;;;;;;;;;;;;;;;;;;6194810;23;19908;-78
2023/02/15 00:49:29;;;;;;;;;;;;;;;;;;6193159;23;20326;-77
2023/02/15 00:51:55;;;;;;;;;;;;;;;;;;6192393;23;19914;-78
2023/02/15 00:54:20;;;;;;;;;;;;;;;;;;6191447;23;19920;-77
2023/02/15 00:56:46;;;;;;;;;;;;;;;;;;6165223;23;19908;-78
2023/02/15 00:59:11;;;;;;;;;;;;;;;;;;6189683;23;19909;-78
2023/02/15 01:01:36;;;;;;;;;;;;;;;;;;6189500;23;19908;-78
2023/02/15 01:04:02;;;;;;;;;;;;;;;;;;6162663;23;19908;-79
2023/02/15 01:06:28;;;;;;;;;;;;;;;;;;6185873;23;19909;-79
2023/02/15 01:08:53;;;;;;;;;;;;;;;;;;6161043;23;19915;-79
2023/02/15 01:11:21;;;;;;;;;;;;;;;;;;6161145;23;19908;-78
2023/02/15 01:13:47;;;;;;;;;;;;;;;;;;6161386;23;19908;-78
2023/02/15 01:16:12;;;;;;;;;;;;;;;;;;6189640;23;19915;-78
2023/02/15 01:18:37;;;;;;;;;;;;;;;;;;6192230;23;19908;-80
2023/02/15 01:21:03;;;;;;;;;;;;;;;;;;6194675;23;20008;-79
2023/02/15 01:23:28;;;;;;;;;;;;;;;;;;6170456;23;20330;-79
2023/02/15 01:25:53;;;;;;;;;;;;;;;;;;6191504;23;19912;-79
2023/02/15 01:28:19;;;;;;;;;;;;;;;;;;6192610;23;20053;-78
2023/02/15 01:30:44;;;;;;;;;;;;;;;;;;6192849;23;19920;-78
2023/02/15 01:33:17;;;;;;;;;;;;;;;;;;6189804;23;19904;-78
2023/02/15 01:35:42;;;;;;;;;;;;;;;;;;6185987;23;19912;-78
2023/02/15 01:38:08;;;;;;;;;;;;;;;;;;6185249;23;19916;-78
2023/02/15 01:40:34;;;;;;;;;;;;;;;;;;6185983;23;19913;-78
2023/02/15 01:43:00;;;;;;;;;;;;;;;;;;6189437;23;19909;-78
2023/02/15 01:45:25;;;;;;;;;;;;;;;;;;6187383;23;20327;-78
2023/02/15 01:47:50;;;;;;;;;;;;;;;;;;6163435;23;19958;-78
2023/02/15 01:50:16;;;;;;;;;;;;;;;;;;6165345;23;19913;-78
2023/02/15 01:52:41;;;;;;;;;;;;;;;;;;6165882;23;19905;-78
2023/02/15 01:55:06;;;;;;;;;;;;;;;;;;6191186;23;19912;-78
2023/02/15 01:57:32;;;;;;;;;;;;;;;;;;6192239;23;19908;-78
2023/02/15 01:59:57;;;;;;;;;;;;;;;;;;6190811;23;19909;-78
2023/02/15 02:02:26;;;;;;;;;;;;;;;;;;6191698;23;19912;-78
2023/02/15 02:04:52;;;;;;;;;;;;;;;;;;6191292;23;19908;-78
2023/02/15 02:07:18;;;;;;;;;;;;;;;;;;6191576;23;19915;-79
2023/02/15 02:09:43;;;;;;;;;;;;;;;;;;6194351;23;19955;-78
2023/02/15 02:12:09;;;;;;;;;;;;;;;;;;6193527;23;19908;-78
2023/02/15 02:14:35;;;;;;;;;;;;;;;;;;6197352;23;19913;-78
2023/02/15 02:17:02;;;;;;;;;;;;;;;;;;6196503;23;19915;-78
2023/02/15 02:19:27;;;;;;;;;;;;;;;;;;6169461;23;19908;-78
2023/02/15 02:21:53;;;;;;;;;;;;;;;;;;6193688;23;19919;-78
2023/02/15 02:24:18;;;;;;;;;;;;;;;;;;6193799;23;19908;-79
2023/02/15 02:26:43;;;;;;;;;;;;;;;;;;6193821;23;19909;-79
2023/02/15 02:29:10;;;;;;;;;;;;;;;;;;6191414;23;19915;-78
2023/02/15 02:31:36;;;;;;;;;;;;;;;;;;6189991;23;20304;-79
2023/02/15 02:34:01;;;;;;;;;;;;;;;;;;6193648;23;19918;-79
2023/02/15 02:36:26;;;;;;;;;;;;;;;;;;6167543;23;19951;-79
2023/02/15 02:38:53;;;;;;;;;;;;;;;;;;6192469;23;20127;-79
2023/02/15 02:41:20;;;;;;;;;;;;;;;;;;6194939;23;19908;-78
2023/02/15 02:43:45;;;;;;;;;;;;;;;;;;6196331;23;19908;-78
2023/02/15 02:46:10;;;;;;;;;;;;;;;;;;6196043;23;19991;-79
2023/02/15 02:48:36;;;;;;;;;;;;;;;;;;6196112;23;19909;-79
2023/02/15 02:51:02;;;;;;;;;;;;;;;;;;6196894;23;19908;-78
2023/02/15 02:53:27;;;;;;;;;;;;;;;;;;6196891;23;19932;-78
2023/02/15 02:55:53;;;;;;;;;;;;;;;;;;6195460;23;19951;-78
2023/02/15 02:58:18;;;;;;;;;;;;;;;;;;6192445;23;19979;-78
2023/02/15 03:00:44;;;;;;;;;;;;;;;;;;6194146;23;19915;-78
2023/02/15 03:03:09;;;;;;;;;;;;;;;;;;6193121;23;19908;-78
2023/02/15 03:05:35;;;;;;;;;;;;;;;;;;6190601;23;20012;-78
2023/02/15 03:08:05;;;;;;;;;;;;;;;;;;6188832;23;19908;-78
2023/02/15 03:10:31;;;;;;;;;;;;;;;;;;6189434;23;19908;-78
2023/02/15 03:12:56;;;;;;;;;;;;;;;;;;6163027;23;19958;-78
2023/02/15 03:15:21;;;;;;;;;;;;;;;;;;6189690;23;19950;-78
2023/02/15 03:17:47;;;;;;;;;;;;;;;;;;6165337;23;19915;-78
2023/02/15 03:20:12;;;;;;;;;;;;;;;;;;6191301;23;19919;-78
2023/02/15 03:22:38;;;;;;;;;;;;;;;;;;6195593;23;19916;-78
2023/02/15 03:25:06;;;;;;;;;;;;;;;;;;6191842;23;19909;-78
2023/02/15 03:27:31;;;;;;;;;;;;;;;;;;6166770;23;19916;-78
2023/02/15 03:30:00;;;;;;;;;;;;;;;;;;6192137;23;19912;-78
2023/02/15 03:32:26;;;;;;;;;;;;;;;;;;6191904;23;19947;-78
2023/02/15 03:34:51;;;;;;;;;;;;;;;;;;6192911;23;19927;-78
2023/02/15 03:37:16;;;;;;;;;;;;;;;;;;6167661;23;19909;-77
2023/02/15 03:39:42;;;;;;;;;;;;;;;;;;6190599;23;19935;-78
2023/02/15 03:42:08;;;;;;;;;;;;;;;;;;6194567;23;19936;-78
2023/02/15 03:44:33;;;;;;;;;;;;;;;;;;6193242;23;19912;-78
2023/02/15 03:46:58;;;;;;;;;;;;;;;;;;6193318;23;20077;-78
2023/02/15 03:49:24;;;;;;;;;;;;;;;;;;6194513;23;19908;-79
2023/02/15 03:51:49;;;;;;;;;;;;;;;;;;6194335;23;19915;-80
2023/02/15 03:54:38;;;;;;;;;;;;;;;;;;6194100;23;19940;-79
2023/02/15 04:02:37;;;;;;;;;;;;;;;;;;6199908;23;19908;-79
2023/02/15 04:05:02;;;;;;;;;;;;;;;;;;6199247;23;19916;-78
2023/02/15 04:07:27;;;;;;;;;;;;;;;;;;6197635;23;19904;-78
2023/02/15 04:12:37;;;;;;;;;;;;;;;;;;6193952;23;19908;-78
2023/02/15 04:17:47;;;;;;;;;;;;;;;;;;6195567;23;19932;-78
2023/02/15 04:25:40;;;;;;;;;;;;;;;;;;6188199;23;19919;-78
2023/02/15 04:28:07;;;;;;;;;;;;;;;;;;6189425;23;19908;-78
2023/02/15 04:30:32;;;;;;;;;;;;;;;;;;6191043;23;19912;-78
2023/02/15 04:32:58;;;;;;;;;;;;;;;;;;6190067;23;19955;-78
2023/02/15 04:35:23;;;;;;;;;;;;;;;;;;6189607;23;19948;-78
2023/02/15 04:37:48;;;;;;;;;;;;;;;;;;6189551;23;19915;-78
2023/02/15 04:40:14;;;;;;;;;;;;;;;;;;6189927;23;19905;-78
2023/02/15 04:42:39;;;;;;;;;;;;;;;;;;6190049;23;20254;-78
2023/02/15 04:45:05;;;;;;;;;;;;;;;;;;6191417;23;19908;-78
2023/02/15 04:47:30;;;;;;;;;;;;;;;;;;6189278;23;19915;-78
2023/02/15 04:49:55;;;;;;;;;;;;;;;;;;6189059;23;19944;-78
2023/02/15 04:52:21;;;;;;;;;;;;;;;;;;6188712;23;19996;-77
2023/02/15 04:54:46;;;;;;;;;;;;;;;;;;6192261;23;19999;-78
2023/02/15 04:57:11;;;;;;;;;;;;;;;;;;6191487;23;19983;-78
2023/02/15 04:59:37;;;;;;;;;;;;;;;;;;6191020;23;19915;-78
2023/02/15 05:02:02;;;;;;;;;;;;;;;;;;6189909;23;19908;-78
2023/02/15 05:04:27;;;;;;;;;;;;;;;;;;6189614;23;19908;-78
2023/02/15 05:06:53;;;;;;;;;;;;;;;;;;6191858;23;19912;-78
2023/02/15 05:09:18;;;;;;;;;;;;;;;;;;6189952;23;19947;-78
2023/02/15 05:11:44;;;;;;;;;;;;;;;;;;6190871;23;19908;-78
2023/02/15 05:14:09;;;;;;;;;;;;;;;;;;6188444;23;19956;-78
2023/02/15 05:16:34;;;;;;;;;;;;;;;;;;6189678;23;19916;-77
2023/02/15 05:19:00;;;;;;;;;;;;;;;;;;6187487;23;19915;-78
2023/02/15 05:21:25;;;;;;;;;;;;;;;;;;6189724;23;19924;-77
2023/02/15 05:23:51;;;;;;;;;;;;;;;;;;6187384;23;19908;-77
2023/02/15 05:29:00;;;;;;;;;;;;;;;;;;6187424;23;20349;-78
2023/02/15 05:31:26;;;;;;;;;;;;;;;;;;6189549;23;19936;-78
2023/02/15 05:33:51;;;;;;;;;;;;;;;;;;6189036;23;19912;-78
2023/02/15 05:36:16;;;;;;;;;;;;;;;;;;6188458;23;19908;-79
2023/02/15 05:38:42;;;;;;;;;;;;;;;;;;6192469;23;19987;-78
2023/02/15 05:41:07;;;;;;;;;;;;;;;;;;6191664;23;19935;-79
2023/02/15 05:43:32;;;;;;;;;;;;;;;;;;6188674;23;19932;-78
2023/02/15 05:45:58;;;;;;;;;;;;;;;;;;6192497;23;19909;-78
2023/02/15 05:48:23;;;;;;;;;;;;;;;;;;6193755;23;19940;-78
2023/02/15 05:50:49;;;;;;;;;;;;;;;;;;6192999;23;19988;-78
2023/02/15 05:53:14;;;;;;;;;;;;;;;;;;6191053;23;19915;-78
2023/02/15 05:55:39;;;;;;;;;;;;;;;;;;6190007;23;20203;-78
2023/02/15 05:58:05;;;;;;;;;;;;;;;;;;6189455;23;19939;-78
2023/02/15 06:00:30;;;;;;;;;;;;;;;;;;6187704;23;19959;-78
2023/02/15 06:02:55;;;;;;;;;;;;;;;;;;6185645;23;19908;-78
2023/02/15 06:05:21;;;;;;;;;;;;;;;;;;6188494;23;19915;-78
2023/02/15 06:07:46;;;;;;;;;;;;;;;;;;6188712;23;19908;-78
2023/02/15 06:10:12;;;;;;;;;;;;;;;;;;6186500;23;20381;-78
2023/02/15 06:12:37;;;;;;;;;;;;;;;;;;6188656;23;19914;-78
2023/02/15 06:15:03;;;;;;;;;;;;;;;;;;6187697;23;19916;-78
2023/02/15 06:17:28;;;;;;;;;;;;;;;;;;6189462;23;19916;-78
2023/02/15 06:19:53;;;;;;;;;;;;;;;;;;6188013;23;20250;-78
2023/02/15 06:22:20;;;;;;;;;;;;;;;;;;6186660;23;19928;-78
2023/02/15 06:24:45;;;;;;;;;;;;;;;;;;6164436;23;20326;-78
2023/02/15 06:27:11;;;;;;;;;;;;;;;;;;6189934;23;19909;-78
2023/02/15 06:29:36;;;;;;;;;;;;;;;;;;6190058;23;19931;-78
2023/02/15 06:32:01;;;;;;;;;;;;;;;;;;6191180;23;19908;-78
2023/02/15 06:34:27;;;;;;;;;;;;;;;;;;6191427;23;20479;-78
2023/02/15 06:36:52;;;;;;;;;;;;;;;;;;6187334;23;19979;-78
2023/02/15 06:39:17;;;;;;;;;;;;;;;;;;6188599;23;20096;-78
2023/02/15 06:41:43;;;;;;;;;;;;;;;;;;6189984;23;19912;-78
2023/02/15 06:44:08;;;;;;;;;;;;;;;;;;6190661;23;20350;-78
2023/02/15 06:46:33;;;;;;;;;;;;;;;;;;6164698;23;20246;-78
2023/02/15 06:48:59;;;;;;;;;;;;;;;;;;6190194;23;19908;-78
2023/02/15 06:51:24;;;;;;;;;;;;;;;;;;6193225;23;19909;-78
2023/02/15 06:53:50;;;;;;;;;;;;;;;;;;6171279;23;19908;-78
2023/02/15 06:56:15;;;;;;;;;;;;;;;;;;6195901;23;19928;-79
2023/02/15 06:58:40;;;;;;;;;;;;;;;;;;6194393;23;20397;-78
2023/02/15 07:01:06;;;;;;;;;;;;;;;;;;6195251;23;19932;-78
2023/02/15 07:03:31;;;;;;;;;;;;;;;;;;6194204;23;20315;-79
2023/02/15 07:05:56;;;;;;;;;;;;;;;;;;6198280;23;20381;-79
2023/02/15 07:08:22;;;;;;;;;;;;;;;;;;6197958;23;19947;-79
2023/02/15 07:10:47;;;;;;;;;;;;;;;;;;6171536;23;19916;-79
2023/02/15 07:13:13;;;;;;;;;;;;;;;;;;6196298;23;19912;-78
2023/02/15 07:15:38;;;;;;;;;;;;;;;;;;6194915;23;19919;-80
2023/02/15 07:18:04;;;;;;;;;;;;;;;;;;6195440;23;20302;-78
2023/02/15 07:20:30;;;;;;;;;;;;;;;;;;6193010;23;19908;-78
2023/02/15 07:22:55;;;;;;;;;;;;;;;;;;6193272;23;19944;-78
2023/02/15 07:25:21;;;;;;;;;;;;;;;;;;6192863;23;19955;-78
2023/02/15 07:27:46;;;;;;;;;;;;;;;;;;6192725;23;19908;-79
2023/02/15 07:30:11;;;;;;;;;;;;;;;;;;6194350;23;20270;-78
2023/02/15 07:33:22;;;;;;;;;;;;;;;;;;6197887;23;19908;-78
2023/02/15 07:35:22;;;;;;;;;;;;;;;;;;6196376;23;20045;-78
2023/02/15 07:37:48;;;;;;;;;;;;;;;;;;6193767;23;19930;-78
2023/02/15 07:40:13;;;;;;;;;;;;;;;;;;6186808;23;20260;-78
2023/02/15 07:42:38;;;;;;;;;;;;;;;;;;6186770;23;20270;-78
2023/02/15 07:45:04;;;;;;;;;;;;;;;;;;6187122;23;19912;-78
2023/02/15 07:47:29;;;;;;;;;;;;;;;;;;6186961;23;19908;-78
2023/02/15 07:49:54;;;;;;;;;;;;;;;;;;6187341;23;19908;-78
2023/02/15 07:52:20;;;;;;;;;;;;;;;;;;6188423;23;19982;-78
2023/02/15 07:54:45;;;;;;;;;;;;;;;;;;6186424;23;19958;-78
2023/02/15 07:57:11;;;;;;;;;;;;;;;;;;6161684;23;19932;-78
2023/02/15 07:59:36;;;;;;;;;;;;;;;;;;6188313;23;19908;-78
2023/02/15 08:02:02;;;;;;;;;;;;;;;;;;6161739;23;20360;-78
2023/02/15 08:04:27;;;;;;;;;;;;;;;;;;6188062;23;20092;-78
2023/02/15 08:06:53;;;;;;;;;;;;;;;;;;6188855;23;19955;-78
2023/02/15 08:09:18;;;;;;;;;;;;;;;;;;6189584;23;20338;-78
2023/02/15 08:11:44;;;;;;;;;;;;;;;;;;6187139;23;19988;-77
2023/02/15 08:14:09;;;;;;;;;;;;;;;;;;6189929;23;20301;-80
2023/02/15 08:16:35;;;;;;;;;;;;;;;;;;6190198;23;19932;-80
2023/02/15 08:19:00;;;;;;;;;;;;;;;;;;6191021;23;19940;-81
2023/02/15 08:21:26;;;;;;;;;;;;;;;;;;6195661;23;19904;-80
2023/02/15 08:23:51;;;;;;;;;;;;;;;;;;6193413;23;20289;-80
2023/02/15 08:26:17;;;;;;;;;;;;;;;;;;6190315;23;20241;-80
2023/02/15 08:28:43;;;;;;;;;;;;;;;;;;6188900;23;19915;-80
2023/02/15 08:31:08;;;;;;;;;;;;;;;;;;6190327;23;19912;-80
2023/02/15 08:33:34;;;;;;;;;;;;;;;;;;6190078;23;19943;-80
2023/02/15 08:35:59;;;;;;;;;;;;;;;;;;6191285;23;19954;-80
2023/02/15 08:38:24;;;;;;;;;;;;;;;;;;6191889;23;19909;-80
2023/02/15 08:40:50;;;;;;;;;;;;;;;;;;6193010;23;19979;-80
2023/02/15 08:43:15;;;;;;;;;;;;;;;;;;6167166;23;19932;-81
2023/02/15 08:45:41;;;;;;;;;;;;;;;;;;6192134;23;19908;-80
2023/02/15 08:48:06;;;;;;;;;;;;;;;;;;6193587;23;19909;-80
2023/02/15 08:50:32;;;;;;;;;;;;;;;;;;6192158;23;19908;-80
2023/02/15 08:52:57;;;;;;;;;;;;;;;;;;6189587;23;19931;-80
2023/02/15 08:55:25;;;;;;;;;;;;;;;;;;6191482;23;20096;-80
2023/02/15 08:57:51;;;;;;;;;;;;;;;;;;6193246;23;19916;-80
2023/02/15 09:00:17;;;;;;;;;;;;;;;;;;6192384;23;19908;-79
2023/02/15 09:02:42;;;;;;;;;;;;;;;;;;6193449;23;19912;-80
2023/02/15 09:05:08;;;;;;;;;;;;;;;;;;6193239;23;20285;-79
2023/02/15 09:07:34;;;;;;;;;;;;;;;;;;6189704;23;19940;-79
2023/02/15 09:09:59;;;;;;;;;;;;;;;;;;6191401;23;20364;-79
2023/02/15 09:12:25;;;;;;;;;;;;;;;;;;6190698;23;19908;-79
2023/02/15 09:14:50;;;;;;;;;;;;;;;;;;6164994;23;19912;-79
2023/02/15 09:17:15;;;;;;;;;;;;;;;;;;6191953;23;19909;-80
2023/02/15 09:23:22;;;;;;;;;;;;;;;;;;6044857;23;19933;-79
2023/02/15 09:25:48;;;;;;;;;;;;;;;;;;6161957;23;20342;-79
2023/02/15 09:28:13;;;;;;;;;;;;;;;;;;6194538;23;19912;-79
2023/02/15 09:30:38;;;;;;;;;;;;;;;;;;6193873;23;20241;-79
2023/02/15 09:33:04;;;;;;;;;;;;;;;;;;6193748;23;19951;-79
2023/02/15 09:38:25;;;;;;;;;;;;;;;;;;6163220;23;19956;-79
2023/02/15 09:40:51;;;;;;;;;;;;;;;;;;6194294;23;19908;-79
2023/02/15 09:43:17;;;;;;;;;;;;;;;;;;6197534;23;19908;-79
2023/02/15 09:45:43;;;;;;;;;;;;;;;;;;6197874;23;19915;-80
2023/02/15 09:48:08;;;;;;;;;;;;;;;;;;6202591;23;19909;-80
2023/02/15 09:50:34;;;;;;;;;;;;;;;;;;6202248;23;19912;-78
2023/02/15 09:53:00;;;;;;;;;;;;;;;;;;6197227;23;19908;-79
2023/02/15 09:55:25;;;;;;;;;;;;;;;;;;6197881;23;19912;-79
2023/02/15 09:57:51;;;;;;;;;;;;;;;;;;6195455;23;19908;-80
2023/02/15 10:00:16;;;;;;;;;;;;;;;;;;6172858;23;19904;-80
2023/02/15 10:02:41;;;;;;;;;;;;;;;;;;6195074;23;20350;-80
2023/02/15 10:05:07;;;;;;;;;;;;;;;;;;6194955;23;19916;-80
2023/02/15 10:07:34;;;;;;;;;;;;;;;;;;6194951;23;20384;-80
2023/02/15 10:09:59;;;;;;;;;;;;;;;;;;6202179;23;19908;-83
2023/02/15 10:12:25;;;;;;;;;;;;;;;;;;6180434;23;19917;-83
2023/02/15 10:14:50;;;;;;;;;;;;;;;;;;6207764;23;19908;-83
2023/02/15 10:17:17;;;;;;;;;;;;;;;;;;6183309;23;19892;-83
2023/02/15 10:19:45;;;;;;;;;;;;;;;;;;6178878;23;19934;-79
2023/02/15 10:22:10;;;;;;;;;;;;;;;;;;6167861;23;19928;-81
2023/02/15 10:24:36;;;;;;;;;;;;;;;;;;6197460;23;20361;-79
2023/02/15 10:27:01;;;;;;;;;;;;;;;;;;6193741;23;19935;-80
2023/02/15 10:29:27;;;;;;;;;;;;;;;;;;6194017;23;19935;-79
2023/02/15 10:31:52;;;;;;;;;;;;;;;;;;6199448;23;19900;-80
2023/02/15 10:34:18;;;;;;;;;;;;;;;;;;6200010;23;19923;-79
2023/02/15 10:36:44;;;;;;;;;;;;;;;;;;6199531;23;19920;-79
2023/02/15 10:39:09;;;;;;;;;;;;;;;;;;6199471;23;19932;-82
2023/02/15 10:41:36;;;;;;;;;;;;;;;;;;6195810;23;19982;-78
2023/02/15 10:44:02;;;;;;;;;;;;;;;;;;6196730;23;19932;-80
2023/02/15 10:46:27;;;;;;;;;;;;;;;;;;6189532;23;19955;-79
2023/02/15 10:48:52;;;;;;;;;;;;;;;;;;6188971;23;19905;-80
2023/02/15 10:51:18;;;;;;;;;;;;;;;;;;6192838;23;19908;-80
2023/02/15 10:53:43;;;;;;;;;;;;;;;;;;6194910;23;19936;-81
2023/02/15 10:56:08;;;;;;;;;;;;;;;;;;6193153;23;20398;-81
2023/02/15 10:58:34;;;;;;;;;;;;;;;;;;6187254;23;19908;-84
2023/02/15 11:01:00;;;;;;;;;;;;;;;;;;6160935;23;20251;-85
2023/02/15 11:03:26;;;;;;;;;;;;;;;;;;6185510;23;20318;-82
2023/02/15 11:05:52;;;;;;;;;;;;;;;;;;6186623;23;19978;-83
2023/02/15 11:08:18;;;;;;;;;;;;;;;;;;6187080;23;19919;-87
2023/02/15 11:10:43;;;;;;;;;;;;;;;;;;6185367;23;19912;-87
2023/02/15 11:13:09;;;;;;;;;;;;;;;;;;6184081;23;19916;-86
2023/02/15 11:15:35;;;;;;;;;;;;;;;;;;6183510;23;19916;-84
2023/02/15 11:18:00;;;;;;;;;;;;;;;;;;6160135;23;20350;-81
2023/02/15 11:20:26;;;;;;;;;;;;;;;;;;6171218;23;19915;-81
2023/02/15 11:22:53;;;;;;;;;;;;;;;;;;6203578;23;19909;-80
2023/02/15 11:25:18;;;;;;;;;;;;;;;;;;6194630;23;19994;-79
2023/02/15 11:27:44;;;;;;;;;;;;;;;;;;6168277;23;19916;-79
2023/02/15 11:30:09;;;;;;;;;;;;;;;;;;6160019;23;19921;-80
2023/02/15 11:35:16;;;;;;;;;;;;;;;;;;6157771;23;19916;-85
2023/02/15 11:40:25;;;;;;;;;;;;;;;;;;6169410;23;19920;-90
2023/02/15 11:50:49;;;;;;;;;;;;;;;;;;6199007;23;20007;-89
2023/02/15 11:53:15;;;;;;;;;;;;;;;;;;6193917;23;19909;-90
2023/02/15 11:55:40;;;;;;;;;;;;;;;;;;6184562;23;19920;-92
2023/02/15 11:58:13;;;;;;;;;;;;;;;;;;6185223;23;19952;-92
2023/02/15 12:00:49;;;;;;;;;;;;;;;;;;6139477;23;19916;-91
2023/02/15 12:03:15;;;;;;;;;;;;;;;;;;6159213;23;20258;-91
2023/02/15 12:05:40;;;;;;;;;;;;;;;;;;6183225;23;19927;-92
2023/02/15 12:08:07;;;;;;;;;;;;;;;;;;6183588;23;19959;-92
2023/02/15 12:10:32;;;;;;;;;;;;;;;;;;6184550;23;20006;-93
2023/02/15 12:12:57;;;;;;;;;;;;;;;;;;6158295;23;19908;-91
2023/02/15 12:15:23;;;;;;;;;;;;;;;;;;6158723;23;20254;-91
2023/02/15 12:17:48;;;;;;;;;;;;;;;;;;6184234;23;20231;-91
2023/02/15 12:20:14;;;;;;;;;;;;;;;;;;6162064;23;19912;-91
2023/02/15 12:22:39;;;;;;;;;;;;;;;;;;6159298;23;20323;-89
2023/02/15 12:25:05;;;;;;;;;;;;;;;;;;6185362;23;19916;-89
2023/02/15 12:27:30;;;;;;;;;;;;;;;;;;6184676;23;19966;-89
2023/02/15 12:29:56;;;;;;;;;;;;;;;;;;6185128;23;20345;-92
2023/02/15 12:32:21;;;;;;;;;;;;;;;;;;6134311;23;19904;-90
2023/02/15 12:34:47;;;;;;;;;;;;;;;;;;6183540;23;19919;-92
2023/02/15 12:37:12;;;;;;;;;;;;;;;;;;6187112;23;20302;-90
2023/02/15 12:39:38;;;;;;;;;;;;;;;;;;6160864;23;19908;-93
2023/02/15 12:42:03;;;;;;;;;;;;;;;;;;6160369;23;19919;-89
2023/02/15 12:44:29;;;;;;;;;;;;;;;;;;6158865;23;19990;-90
2023/02/15 12:46:54;;;;;;;;;;;;;;;;;;6135014;23;19920;-91
2023/02/15 12:49:23;;;;;;;;;;;;;;;;;;6159571;23;20249;-90
2023/02/15 12:51:51;;;;;;;;;;;;;;;;;;6160602;23;19912;-88
2023/02/15 12:54:16;;;;;;;;;;;;;;;;;;6159079;23;20333;-89
2023/02/15 12:56:41;;;;;;;;;;;;;;;;;;6131638;23;20406;-86
2023/02/15 12:59:07;;;;;;;;;;;;;;;;;;6156291;23;19958;-88
2023/02/15 13:01:32;;;;;;;;;;;;;;;;;;6159811;23;19908;-93
2023/02/15 13:03:58;;;;;;;;;;;;;;;;;;6135542;23;19909;-92
2023/02/15 13:06:23;;;;;;;;;;;;;;;;;;6158360;23;19912;-91
2023/02/15 13:08:49;;;;;;;;;;;;;;;;;;6158035;23;19970;-89
2023/02/15 13:11:14;;;;;;;;;;;;;;;;;;6184627;23;19971;-94
2023/02/15 13:13:40;;;;;;;;;;;;;;;;;;6158576;23;20404;-89
2023/02/15 13:16:05;;;;;;;;;;;;;;;;;;6157221;23;20357;-88
2023/02/15 13:18:31;;;;;;;;;;;;;;;;;;6157985;23;19908;-87
2023/02/15 13:20:56;;;;;;;;;;;;;;;;;;6182812;23;20357;-88
2023/02/15 13:23:21;;;;;;;;;;;;;;;;;;6134048;23;19935;-89
2023/02/15 13:25:50;;;;;;;;;;;;;;;;;;6183732;23;19936;-90
2023/02/15 13:28:15;;;;;;;;;;;;;;;;;;6158288;23;19908;-90
2023/02/15 13:30:40;;;;;;;;;;;;;;;;;;6182991;23;20281;-89
2023/02/15 13:33:06;;;;;;;;;;;;;;;;;;6182717;23;19915;-90
2023/02/15 13:35:31;;;;;;;;;;;;;;;;;;6133130;23;19912;-89
2023/02/15 13:37:57;;;;;;;;;;;;;;;;;;6163095;23;20349;-88
2023/02/15 13:40:22;;;;;;;;;;;;;;;;;;6141708;23;19959;-88
2023/02/15 13:42:47;;;;;;;;;;;;;;;;;;6198839;23;20045;-89
2023/02/15 13:45:13;;;;;;;;;;;;;;;;;;6204399;23;20096;-86
2023/02/15 13:47:38;;;;;;;;;;;;;;;;;;6206046;23;19915;-86
2023/02/15 13:50:04;;;;;;;;;;;;;;;;;;6201273;23;20297;-85
2023/02/15 13:52:29;;;;;;;;;;;;;;;;;;6168941;23;20301;-89
2023/02/15 13:54:57;;;;;;;;;;;;;;;;;;6191082;23;20301;-88
2023/02/15 13:57:23;;;;;;;;;;;;;;;;;;6158862;23;19909;-88
2023/02/15 13:59:48;;;;;;;;;;;;;;;;;;6184742;23;19908;-87
2023/02/15 14:02:15;;;;;;;;;;;;;;;;;;6184145;23;19916;-88
2023/02/15 14:04:40;;;;;;;;;;;;;;;;;;6184702;23;19927;-87
2023/02/15 14:07:06;;;;;;;;;;;;;;;;;;6182996;23;19928;-87
2023/02/15 14:09:31;;;;;;;;;;;;;;;;;;6185731;23;19912;-86
2023/02/15 14:11:57;;;;;;;;;;;;;;;;;;6185214;23;19959;-87
2023/02/15 14:14:22;;;;;;;;;;;;;;;;;;6186585;23;20062;-87
2023/02/15 14:16:48;;;;;;;;;;;;;;;;;;6185312;23;19908;-87
2023/02/15 14:19:13;;;;;;;;;;;;;;;;;;6185895;23;19912;-86
2023/02/15 14:21:38;;;;;;;;;;;;;;;;;;6185417;23;19908;-87
2023/02/15 14:24:04;;;;;;;;;;;;;;;;;;6160552;23;19915;-86
2023/02/15 14:26:34;;;;;;;;;;;;;;;;;;6185326;23;19932;-85
2023/02/15 14:28:59;;;;;;;;;;;;;;;;;;6187907;23;19919;-87
2023/02/15 14:31:25;;;;;;;;;;;;;;;;;;6187464;23;19908;-86
2023/02/15 14:33:50;;;;;;;;;;;;;;;;;;6185537;23;20357;-87
2023/02/15 14:36:15;;;;;;;;;;;;;;;;;;6188601;23;20331;-86
2023/02/15 14:38:41;;;;;;;;;;;;;;;;;;6187532;23;19909;-86
2023/02/15 14:41:07;;;;;;;;;;;;;;;;;;6186225;23;19927;-84
2023/02/15 14:43:32;;;;;;;;;;;;;;;;;;6187339;23;19911;-84
2023/02/15 14:45:58;;;;;;;;;;;;;;;;;;6190654;23;19908;-85
2023/02/15 14:48:23;;;;;;;;;;;;;;;;;;6194121;23;19922;-84
2023/02/15 14:50:49;;;;;;;;;;;;;;;;;;6188664;23;19968;-85
2023/02/15 14:53:14;;;;;;;;;;;;;;;;;;6185671;23;20338;-85
2023/02/15 14:55:39;;;;;;;;;;;;;;;;;;6183606;23;19951;-84
2023/02/15 14:58:05;;;;;;;;;;;;;;;;;;6186272;23;19919;-85
2023/02/15 15:00:30;;;;;;;;;;;;;;;;;;6184699;23;20192;-85
2023/02/15 15:02:56;;;;;;;;;;;;;;;;;;6186083;23;19908;-84
2023/02/15 15:05:21;;;;;;;;;;;;;;;;;;6185420;23;19979;-85
2023/02/15 15:07:47;;;;;;;;;;;;;;;;;;6183409;23;19915;-86
2023/02/15 15:10:15;;;;;;;;;;;;;;;;;;6183363;23;19908;-87
2023/02/15 15:12:41;;;;;;;;;;;;;;;;;;6185754;23;20330;-87
2023/02/15 15:15:06;;;;;;;;;;;;;;;;;;6159464;23;19987;-86
2023/02/15 15:17:38;;;;;;;;;;;;;;;;;;6186734;23;20422;-86
2023/02/15 15:20:04;;;;;;;;;;;;;;;;;;6186208;23;20422;-85
2023/02/15 15:22:29;;;;;;;;;;;;;;;;;;6159159;23;19971;-87
2023/02/15 15:24:55;;;;;;;;;;;;;;;;;;6185843;23;20334;-87
2023/02/15 15:27:20;;;;;;;;;;;;;;;;;;6185884;23;20292;-87
2023/02/15 15:29:46;;;;;;;;;;;;;;;;;;6187186;23;19922;-86
2023/02/15 15:32:11;;;;;;;;;;;;;;;;;;6186387;23;19904;-88
2023/02/15 15:34:36;;;;;;;;;;;;;;;;;;6188270;23;19912;-88
2023/02/15 15:37:02;;;;;;;;;;;;;;;;;;6186126;23;19962;-88
2023/02/15 15:39:27;;;;;;;;;;;;;;;;;;6186608;23;20007;-89
2023/02/15 15:41:53;;;;;;;;;;;;;;;;;;6184181;23;19908;-87
2023/02/15 15:44:18;;;;;;;;;;;;;;;;;;6185391;23;20309;-87
2023/02/15 15:46:43;;;;;;;;;;;;;;;;;;6134512;23;20261;-87
2023/02/15 15:49:09;;;;;;;;;;;;;;;;;;6183732;23;19904;-87
2023/02/15 15:51:36;;;;;;;;;;;;;;;;;;6185790;23;19920;-86
2023/02/15 15:54:01;;;;;;;;;;;;;;;;;;6183926;23;19908;-87
2023/02/15 15:56:27;;;;;;;;;;;;;;;;;;6183363;23;19912;-88
2023/02/15 15:58:53;;;;;;;;;;;;;;;;;;6185654;23;20010;-91
2023/02/15 16:01:21;;;;;;;;;;;;;;;;;;6162075;23;19905;-91
2023/02/15 16:03:46;;;;;;;;;;;;;;;;;;6184782;23;19955;-90
2023/02/15 16:06:11;;;;;;;;;;;;;;;;;;6185373;23;19985;-91
2023/02/15 16:08:37;;;;;;;;;;;;;;;;;;6184422;23;20278;-91
2023/02/15 16:11:02;;;;;;;;;;;;;;;;;;6159764;23;19946;-89
2023/02/15 16:13:28;;;;;;;;;;;;;;;;;;6163425;23;19915;-91
2023/02/15 16:15:54;;;;;;;;;;;;;;;;;;6188468;23;19917;-90
2023/02/15 16:18:19;;;;;;;;;;;;;;;;;;6189301;23;20277;-90
2023/02/15 16:20:44;;;;;;;;;;;;;;;;;;6197440;23;19928;-89
2023/02/15 16:23:10;;;;;;;;;;;;;;;;;;6168559;23;20007;-89
2023/02/15 16:25:35;;;;;;;;;;;;;;;;;;6187017;23;19953;-88
2023/02/15 16:28:01;;;;;;;;;;;;;;;;;;6185576;23;19936;-87
2023/02/15 16:30:26;;;;;;;;;;;;;;;;;;6185451;23;20356;-87
2023/02/15 16:32:53;;;;;;;;;;;;;;;;;;6186866;23;21346;-86
2023/02/15 16:35:19;;;;;;;;;;;;;;;;;;6181853;23;19912;-85
2023/02/15 16:37:45;;;;;;;;;;;;;;;;;;6160966;23;19908;-86
2023/02/15 16:40:10;;;;;;;;;;;;;;;;;;6134942;23;20334;-86
2023/02/15 16:42:36;;;;;;;;;;;;;;;;;;6160160;23;19915;-88
2023/02/15 16:45:01;;;;;;;;;;;;;;;;;;6183037;23;20319;-88
2023/02/15 16:47:26;;;;;;;;;;;;;;;;;;6184347;23;20195;-86
2023/02/15 16:49:52;;;;;;;;;;;;;;;;;;6135779;23;19939;-87
2023/02/15 16:52:17;;;;;;;;;;;;;;;;;;6137236;23;19947;-86
2023/02/15 16:54:43;;;;;;;;;;;;;;;;;;6188246;23;19913;-85
2023/02/15 16:57:08;;;;;;;;;;;;;;;;;;6188829;23;19914;-88
2023/02/15 16:59:34;;;;;;;;;;;;;;;;;;6168674;23;19912;-88
2023/02/15 17:01:59;;;;;;;;;;;;;;;;;;6163332;23;19908;-88
2023/02/15 17:04:24;;;;;;;;;;;;;;;;;;6166032;23;20269;-87
2023/02/15 17:06:50;;;;;;;;;;;;;;;;;;6133676;23;19983;-89
2023/02/15 17:09:18;;;;;;;;;;;;;;;;;;6157726;23;19987;-88
2023/02/15 17:11:43;;;;;;;;;;;;;;;;;;6133873;23;19909;-86
2023/02/15 17:14:09;;;;;;;;;;;;;;;;;;6158587;23;19915;-88